createdAt,value
2023-02-11T00:00:35.162Z,39.92
2023-02-11T00:03:02.825Z,41.35
2023-02-11T00:05:30.433Z,38.67
2023-02-11T00:07:58.181Z,37.97
2023-02-11T00:10:25.714Z,36.15
2023-02-11T00:12:53.484Z,36.67
2023-02-11T00:15:21.357Z,36.53
2023-02-11T00:17:48.974Z,39.42
2023-02-11T00:20:17.040Z,36.53
2023-02-11T00:22:44.875Z,39.40
2023-02-11T00:25:12.472Z,38.45
2023-02-11T00:27:40.126Z,39.25
2023-02-11T00:30:08.143Z,44.65
2023-02-11T00:32:35.966Z,41.63
2023-02-11T00:35:05.126Z,38.28
2023-02-11T00:37:36.682Z,36.55
2023-02-11T00:42:35.725Z,36.05
2023-02-11T00:45:03.712Z,37.42
2023-02-11T00:47:31.537Z,34.95
2023-02-11T00:50:01.446Z,35.65
2023-02-11T00:52:29.900Z,36.20
2023-02-11T00:54:57.565Z,40.88
2023-02-11T00:57:25.282Z,40.88
2023-02-11T00:59:52.989Z,39.15
2023-02-11T01:02:20.983Z,39.97
2023-02-11T01:04:49.647Z,36.88
2023-02-11T01:07:17.764Z,38.33
2023-02-11T01:09:45.918Z,41.78
2023-02-11T01:12:13.627Z,42.03
2023-02-11T01:14:41.751Z,38.17
2023-02-11T01:17:09.473Z,39.65
2023-02-11T01:19:38.028Z,37.97
2023-02-11T01:22:07.800Z,36.00
2023-02-11T01:24:35.692Z,36.13
2023-02-11T01:27:03.579Z,39.20
2023-02-11T01:29:31.493Z,35.88
2023-02-11T01:31:59.328Z,40.33
2023-02-11T01:34:27.112Z,41.88
2023-02-11T01:36:59.041Z,36.92
2023-02-11T01:39:28.567Z,40.85
2023-02-11T01:41:56.312Z,37.63
2023-02-11T01:44:24.463Z,39.42
2023-02-11T01:46:52.248Z,41.92
2023-02-11T01:49:25.930Z,38.10
2023-02-11T01:51:59.869Z,36.88
2023-02-11T01:54:49.239Z,38.00
2023-02-11T01:57:25.340Z,38.25
2023-02-11T02:00:02.455Z,37.53
2023-02-11T02:02:57.522Z,40.88
2023-02-11T02:05:34.447Z,42.47
2023-02-11T02:08:10.800Z,43.58
2023-02-11T02:10:41.270Z,39.83
2023-02-11T02:13:09.169Z,40.43
2023-02-11T02:15:38.261Z,38.60
2023-02-11T02:18:24.712Z,44.08
2023-02-11T02:21:11.682Z,43.05
2023-02-11T02:23:57.605Z,40.47
2023-02-11T02:26:37.633Z,36.78
2023-02-11T02:29:08.289Z,40.10
2023-02-11T02:31:59.255Z,40.78
2023-02-11T02:34:31.728Z,40.70
2023-02-11T02:37:09.193Z,47.67
2023-02-11T02:39:37.259Z,44.85
2023-02-11T02:42:05.715Z,44.38
2023-02-11T02:44:34.566Z,43.67
2023-02-11T02:47:02.694Z,42.63
2023-02-11T02:49:30.598Z,43.60
2023-02-11T02:52:17.151Z,39.38
2023-02-11T02:55:04.054Z,37.78
2023-02-11T02:57:43.383Z,37.83
2023-02-11T03:00:23.395Z,39.75
2023-02-11T03:03:15.656Z,41.47
2023-02-11T03:05:43.355Z,38.28
2023-02-11T03:08:14.552Z,39.28
2023-02-11T03:13:10.408Z,36.05
2023-02-11T03:15:40.224Z,38.80
2023-02-11T03:18:09.936Z,36.28
2023-02-11T03:20:38.404Z,39.35
2023-02-11T03:23:14.642Z,37.88
2023-02-11T03:25:45.013Z,39.15
2023-02-11T03:28:25.087Z,36.33
2023-02-11T03:30:58.315Z,37.92
2023-02-11T03:33:30.077Z,37.65
2023-02-11T03:36:00.818Z,40.85
2023-02-11T03:38:31.969Z,38.72
2023-02-11T03:41:00.647Z,37.83
2023-02-11T03:43:36.748Z,39.63
2023-02-11T03:46:04.720Z,38.65
2023-02-11T03:48:34.034Z,38.92
2023-02-11T03:51:03.954Z,38.63
2023-02-11T03:53:31.656Z,42.05
2023-02-11T03:56:01.090Z,39.30
2023-02-11T03:58:29.067Z,37.13
2023-02-11T04:00:56.909Z,39.33
2023-02-11T04:03:24.652Z,38.72
2023-02-11T04:05:52.680Z,36.35
2023-02-11T04:08:20.550Z,38.75
2023-02-11T04:10:48.151Z,41.17
2023-02-11T04:13:15.724Z,41.20
2023-02-11T04:15:43.385Z,38.60
2023-02-11T04:18:11.896Z,41.30
2023-02-11T04:20:39.634Z,40.33
2023-02-11T04:23:07.220Z,40.83
2023-02-11T04:25:35.049Z,37.22
2023-02-11T04:28:03.067Z,37.67
2023-02-11T04:30:30.951Z,41.33
2023-02-11T04:32:59.163Z,39.72
2023-02-11T04:35:26.730Z,37.95
2023-02-11T04:37:54.489Z,37.28
2023-02-11T04:43:03.950Z,40.70
2023-02-11T04:45:31.613Z,40.25
2023-02-11T04:47:59.451Z,39.70
2023-02-11T04:50:27.228Z,35.55
2023-02-11T04:52:54.803Z,41.63
2023-02-11T04:55:22.603Z,42.42
2023-02-11T04:57:50.441Z,39.88
2023-02-11T05:00:18.160Z,39.53
2023-02-11T05:02:45.812Z,37.13
2023-02-11T05:05:13.506Z,39.13
2023-02-11T05:07:41.299Z,38.47
2023-02-11T05:10:09.169Z,41.20
2023-02-11T05:12:36.942Z,39.10
2023-02-11T05:15:04.933Z,38.78
2023-02-11T05:17:32.709Z,39.00
2023-02-11T05:20:00.573Z,40.10
2023-02-11T05:22:28.467Z,35.13
2023-02-11T05:24:56.207Z,37.20
2023-02-11T05:27:23.939Z,37.15
2023-02-11T05:29:51.590Z,39.72
2023-02-11T05:32:19.782Z,38.53
2023-02-11T05:34:47.448Z,40.45
2023-02-11T05:37:15.287Z,39.70
2023-02-11T05:39:43.493Z,37.92
2023-02-11T05:42:11.526Z,38.47
2023-02-11T05:44:39.367Z,36.17
2023-02-11T05:47:09.022Z,39.47
2023-02-11T05:49:36.964Z,41.33
2023-02-11T05:52:04.755Z,38.88
2023-02-11T05:54:32.513Z,38.47
2023-02-11T05:57:00.167Z,39.45
2023-02-11T05:59:28.009Z,41.05
2023-02-11T06:01:55.611Z,41.75
2023-02-11T06:04:23.405Z,40.10
2023-02-11T06:06:51.040Z,40.63
2023-02-11T06:09:18.965Z,39.58
2023-02-11T06:11:46.727Z,41.03
2023-02-11T06:14:14.840Z,43.60
2023-02-11T06:16:42.427Z,37.92
2023-02-11T06:19:09.980Z,39.65
2023-02-11T06:21:43.872Z,38.75
2023-02-11T06:24:11.976Z,37.80
2023-02-11T06:26:39.800Z,37.17
2023-02-11T06:29:07.472Z,39.47
2023-02-11T06:31:35.225Z,38.83
2023-02-11T06:34:02.974Z,38.90
2023-02-11T06:36:30.779Z,41.33
2023-02-11T06:38:58.528Z,40.42
2023-02-11T06:41:26.347Z,39.28
2023-02-11T06:43:54.254Z,39.83
2023-02-11T06:46:22.173Z,37.88
2023-02-11T06:48:50.892Z,41.15
2023-02-11T06:51:18.632Z,40.85
2023-02-11T06:53:47.245Z,41.03
2023-02-11T06:56:19.020Z,41.33
2023-02-11T06:58:47.504Z,41.85
2023-02-11T07:01:16.694Z,40.30
2023-02-11T07:03:46.259Z,37.03
2023-02-11T07:06:15.055Z,40.97
2023-02-11T07:08:43.262Z,41.42
2023-02-11T07:11:15.330Z,40.58
2023-02-11T07:13:43.277Z,42.05
2023-02-11T07:16:13.742Z,43.65
2023-02-11T07:18:41.937Z,40.07
2023-02-11T07:21:11.027Z,38.17
2023-02-11T07:23:40.810Z,41.40
2023-02-11T07:26:10.055Z,38.83
2023-02-11T07:28:38.703Z,38.40
2023-02-11T07:31:07.359Z,43.65
2023-02-11T07:33:35.957Z,37.95
2023-02-11T07:36:05.091Z,38.80
2023-02-11T07:38:33.421Z,43.72
2023-02-11T07:41:04.448Z,45.63
2023-02-11T07:43:32.884Z,42.83
2023-02-11T07:46:00.621Z,39.85
2023-02-11T07:48:28.246Z,35.35
2023-02-11T07:50:55.993Z,38.83
2023-02-11T07:53:23.915Z,37.30
2023-02-11T07:55:52.134Z,37.25
2023-02-11T07:58:20.101Z,38.00
2023-02-11T08:00:48.035Z,36.17
2023-02-11T08:03:16.364Z,37.17
2023-02-11T08:05:44.024Z,36.60
2023-02-11T08:08:11.927Z,37.63
2023-02-11T08:10:40.330Z,34.80
2023-02-11T08:13:08.079Z,37.60
2023-02-11T08:15:36.050Z,38.40
2023-02-11T08:18:03.979Z,37.83
2023-02-11T08:20:32.454Z,36.90
2023-02-11T08:23:02.353Z,36.45
2023-02-11T08:25:30.424Z,35.83
2023-02-11T08:27:59.047Z,37.03
2023-02-11T08:30:27.648Z,36.58
2023-02-11T08:32:55.400Z,37.00
2023-02-11T08:35:23.536Z,36.22
2023-02-11T08:37:51.326Z,37.55
2023-02-11T08:40:19.063Z,37.15
2023-02-11T08:42:46.750Z,35.40
2023-02-11T08:45:14.481Z,36.47
2023-02-11T08:47:42.203Z,37.92
2023-02-11T08:50:10.260Z,35.10
2023-02-11T08:52:38.166Z,34.63
2023-02-11T08:55:05.898Z,36.03
2023-02-11T08:57:33.607Z,36.63
2023-02-11T09:00:01.207Z,34.40
2023-02-11T09:02:30.008Z,33.20
2023-02-11T09:04:57.639Z,33.30
2023-02-11T09:07:25.433Z,32.92
2023-02-11T09:09:53.077Z,31.10
2023-02-11T09:12:21.257Z,29.38
2023-02-11T09:14:48.784Z,29.13
2023-02-11T09:17:16.389Z,29.88
2023-02-11T09:19:43.951Z,28.45
2023-02-11T09:22:11.798Z,27.95
2023-02-11T09:24:39.568Z,24.75
2023-02-11T09:27:07.201Z,25.65
2023-02-11T09:29:34.815Z,25.80
2023-02-11T09:32:02.515Z,23.73
2023-02-11T09:34:30.299Z,26.13
2023-02-11T09:36:57.983Z,26.92
2023-02-11T09:39:26.743Z,27.02
2023-02-11T09:42:00.073Z,26.85
2023-02-11T09:44:32.937Z,24.40
2023-02-11T09:47:02.498Z,26.80
2023-02-11T09:49:47.702Z,25.88
2023-02-11T09:52:31.357Z,24.63
2023-02-11T09:55:00.702Z,23.63
2023-02-11T09:57:35.854Z,24.70
2023-02-11T10:00:16.884Z,24.88
2023-02-11T10:02:56.804Z,25.48
2023-02-11T10:05:27.606Z,26.40
2023-02-11T10:07:55.278Z,24.92
2023-02-11T10:10:34.763Z,24.92
2023-02-11T10:13:30.602Z,26.35
2023-02-11T10:16:01.355Z,29.58
2023-02-11T10:18:29.036Z,27.23
2023-02-11T10:21:15.608Z,25.73
2023-02-11T10:23:45.367Z,25.38
2023-02-11T10:26:18.833Z,25.45
2023-02-11T10:28:47.769Z,24.50
2023-02-11T10:31:22.163Z,26.45
2023-02-11T10:33:52.911Z,28.17
2023-02-11T10:36:21.822Z,28.20
2023-02-11T10:38:49.521Z,26.20
2023-02-11T10:41:26.969Z,24.83
2023-02-11T10:43:54.878Z,26.77
2023-02-11T10:46:26.619Z,26.75
2023-02-11T10:48:54.595Z,26.42
2023-02-11T10:51:26.998Z,25.48
2023-02-11T10:54:08.338Z,27.38
2023-02-11T10:56:37.241Z,26.08
2023-02-11T10:59:04.797Z,25.70
2023-02-11T11:01:51.903Z,25.55
2023-02-11T11:04:26.126Z,25.63
2023-02-11T11:06:54.044Z,26.00
2023-02-11T11:09:31.766Z,25.83
2023-02-11T11:11:59.398Z,25.80
2023-02-11T11:14:29.642Z,25.90
2023-02-11T11:16:57.196Z,24.83
2023-02-11T11:19:26.189Z,25.77
2023-02-11T11:21:54.763Z,23.83
2023-02-11T11:24:26.745Z,25.13
2023-02-11T11:26:55.560Z,25.42
2023-02-11T11:29:26.940Z,27.33
2023-02-11T11:31:57.955Z,25.75
2023-02-11T11:36:53.216Z,24.65
2023-02-11T11:39:25.944Z,25.30
2023-02-11T11:41:55.183Z,24.08
2023-02-11T11:44:25.410Z,25.20
2023-02-11T11:47:08.075Z,22.93
2023-02-11T11:49:39.151Z,23.42
2023-02-11T11:54:34.824Z,25.00
2023-02-11T11:57:11.979Z,25.73
2023-02-11T11:59:39.607Z,24.02
2023-02-11T12:02:08.617Z,24.30
2023-02-11T12:04:39.364Z,23.10
2023-02-11T12:07:25.442Z,24.75
2023-02-11T12:09:56.746Z,26.50
2023-02-11T12:12:53.843Z,25.45
2023-02-11T12:15:38.852Z,23.63
2023-02-11T12:18:25.241Z,23.92
2023-02-11T12:20:58.953Z,23.23
2023-02-11T12:23:58.501Z,24.00
2023-02-11T12:26:32.582Z,25.60
2023-02-11T12:29:23.425Z,23.48
2023-02-11T12:32:03.280Z,24.00
2023-02-11T12:34:31.057Z,25.00
2023-02-11T12:37:03.447Z,22.98
2023-02-11T12:39:31.042Z,23.67
2023-02-11T12:42:17.324Z,24.67
2023-02-11T12:45:04.161Z,22.80
2023-02-11T12:47:31.757Z,22.60
2023-02-11T12:50:11.616Z,25.40
2023-02-11T12:52:46.100Z,24.63
2023-02-11T12:55:20.100Z,21.98
2023-02-11T12:57:49.142Z,26.08
2023-02-11T13:00:22.213Z,24.15
2023-02-11T13:03:13.380Z,24.85
2023-02-11T13:05:41.166Z,24.02
2023-02-11T13:08:28.610Z,23.25
2023-02-11T13:11:01.287Z,22.83
2023-02-11T13:13:39.975Z,23.75
2023-02-11T13:16:15.584Z,24.27
2023-02-11T13:18:54.786Z,21.63
2023-02-11T13:21:22.509Z,24.08
2023-02-11T13:24:09.048Z,23.20
2023-02-11T13:26:36.636Z,22.45
2023-02-11T13:29:04.194Z,22.40
2023-02-11T13:31:32.281Z,23.60
2023-02-11T13:33:59.988Z,21.17
2023-02-11T13:36:30.196Z,21.77
2023-02-11T13:38:57.981Z,22.87
2023-02-11T13:41:29.050Z,20.55
2023-02-11T13:44:08.874Z,20.70
2023-02-11T13:46:50.859Z,20.98
2023-02-11T13:49:23.345Z,21.70
2023-02-11T13:51:52.046Z,22.35
2023-02-11T13:54:22.131Z,22.75
2023-02-11T13:57:10.272Z,21.63
2023-02-11T13:59:37.843Z,19.35
2023-02-11T14:02:24.118Z,19.55
2023-02-11T14:05:22.863Z,22.67
2023-02-11T14:08:28.237Z,20.00
2023-02-11T14:11:26.537Z,18.63
2023-02-11T14:13:54.843Z,22.77
2023-02-11T14:16:36.910Z,20.65
2023-02-11T14:19:06.475Z,20.67
2023-02-11T14:21:38.877Z,20.25
2023-02-11T14:24:07.156Z,19.65
2023-02-11T14:26:47.651Z,19.90
2023-02-11T14:29:24.529Z,18.02
2023-02-11T14:32:06.015Z,19.98
2023-02-11T14:34:42.162Z,20.25
2023-02-11T14:37:14.266Z,18.80
2023-02-11T14:42:31.300Z,17.10
2023-02-11T14:45:04.329Z,17.80
2023-02-11T14:47:50.658Z,17.55
2023-02-11T14:50:29.105Z,15.98
2023-02-11T14:53:01.376Z,16.40
2023-02-11T14:55:44.735Z,15.73
2023-02-11T14:58:29.413Z,17.40
2023-02-11T15:01:07.136Z,20.50
2023-02-11T15:03:45.622Z,18.17
2023-02-11T15:06:28.143Z,24.05
2023-02-11T15:14:43.240Z,18.35
2023-02-11T15:17:28.125Z,18.38
2023-02-11T15:22:43.300Z,17.95
2023-02-11T15:25:14.968Z,20.98
2023-02-11T15:27:47.598Z,18.48
2023-02-11T15:30:26.243Z,18.52
2023-02-11T15:38:26.718Z,17.45
2023-02-11T15:41:00.428Z,17.80
2023-02-11T15:43:44.869Z,18.77
2023-02-11T15:46:15.283Z,21.42
2023-02-11T15:54:21.931Z,18.27
2023-02-11T16:02:17.499Z,20.73
2023-02-11T16:04:54.208Z,16.25
2023-02-11T16:07:47.355Z,16.45
2023-02-11T16:10:18.422Z,17.58
2023-02-11T16:15:32.229Z,17.42
2023-02-11T16:18:00.464Z,15.65
2023-02-11T16:20:28.280Z,17.25
2023-02-11T16:22:56.265Z,15.18
2023-02-11T16:25:24.805Z,15.57
2023-02-11T16:27:54.017Z,16.63
2023-02-11T16:30:24.808Z,16.05
2023-02-11T16:32:53.784Z,14.85
2023-02-11T16:35:21.762Z,15.07
2023-02-11T16:37:49.497Z,15.07
2023-02-11T16:40:24.473Z,15.13
2023-02-11T16:42:53.532Z,17.45
2023-02-11T16:45:21.780Z,14.63
2023-02-11T16:47:49.724Z,16.27
2023-02-11T16:50:24.997Z,13.73
2023-02-11T16:52:53.506Z,15.68
2023-02-11T16:55:22.281Z,16.08
2023-02-11T16:57:49.999Z,17.38
2023-02-11T17:00:21.860Z,19.52
2023-02-11T17:02:49.738Z,18.85
2023-02-11T17:05:23.073Z,21.02
2023-02-11T17:07:58.700Z,22.42
2023-02-11T17:10:26.384Z,28.65
2023-02-11T17:12:54.188Z,28.38
2023-02-11T17:15:21.999Z,28.20
2023-02-11T17:17:49.814Z,31.48
2023-02-11T17:20:17.690Z,28.77
2023-02-11T17:22:45.350Z,23.50
2023-02-11T17:25:13.109Z,28.25
2023-02-11T17:27:40.841Z,26.33
2023-02-11T17:30:09.337Z,26.77
2023-02-11T17:32:37.597Z,32.58
2023-02-11T17:35:08.659Z,31.65
2023-02-11T17:37:36.431Z,29.80
2023-02-11T17:40:04.219Z,27.88
2023-02-11T17:42:31.983Z,28.80
2023-02-11T17:45:00.115Z,29.17
2023-02-11T17:47:28.119Z,29.30
2023-02-11T17:49:55.870Z,32.55
2023-02-11T17:52:24.348Z,30.45
2023-02-11T17:54:52.314Z,30.17
2023-02-11T17:57:20.154Z,30.88
2023-02-11T17:59:48.119Z,28.60
2023-02-11T18:02:15.866Z,28.42
2023-02-11T18:04:43.716Z,27.30
2023-02-11T18:07:12.286Z,27.20
2023-02-11T18:09:40.584Z,28.17
2023-02-11T18:12:09.030Z,29.35
2023-02-11T18:14:38.384Z,33.25
2023-02-11T18:17:06.274Z,43.45
2023-02-11T18:19:35.988Z,39.00
2023-02-11T18:22:04.421Z,34.50
2023-02-11T18:24:32.276Z,38.13
2023-02-11T18:27:00.440Z,43.50
2023-02-11T18:29:28.231Z,38.40
2023-02-11T18:31:56.917Z,34.83
2023-02-11T18:34:25.377Z,32.65
2023-02-11T18:36:53.153Z,32.30
2023-02-11T18:39:24.071Z,30.95
2023-02-11T18:41:54.500Z,36.65
2023-02-11T18:44:23.991Z,33.77
2023-02-11T18:46:52.179Z,32.58
2023-02-11T18:49:20.263Z,31.73
2023-02-11T18:51:47.976Z,28.40
2023-02-11T18:54:15.582Z,29.15
2023-02-11T18:56:43.214Z,33.28
2023-02-11T18:59:11.113Z,30.67
2023-02-11T19:01:41.121Z,30.60
2023-02-11T19:04:08.906Z,32.45
2023-02-11T19:06:38.318Z,29.67
2023-02-11T19:09:07.941Z,32.13
2023-02-11T19:11:48.026Z,31.95
2023-02-11T19:14:17.219Z,30.42
2023-02-11T19:16:46.375Z,31.75
2023-02-11T19:19:14.591Z,32.28
2023-02-11T19:21:43.849Z,30.98
2023-02-11T19:24:12.285Z,30.55
2023-02-11T19:26:39.976Z,28.65
2023-02-11T19:29:07.815Z,29.20
2023-02-11T19:31:35.864Z,27.20
2023-02-11T19:34:04.055Z,29.15
2023-02-11T19:36:32.265Z,29.38
2023-02-11T19:39:03.881Z,29.25
2023-02-11T19:41:32.060Z,30.88
2023-02-11T19:44:00.617Z,42.75
2023-02-11T19:46:29.931Z,34.65
2023-02-11T19:49:01.486Z,32.88
2023-02-11T19:51:29.602Z,28.92
2023-02-11T19:53:58.930Z,28.02
2023-02-11T19:56:28.659Z,26.48
2023-02-11T19:58:56.272Z,28.65
2023-02-11T20:01:24.970Z,29.38
2023-02-11T20:03:54.323Z,28.40
2023-02-11T20:06:23.519Z,27.23
2023-02-11T20:08:58.223Z,28.60
2023-02-11T20:11:28.162Z,29.40
2023-02-11T20:13:57.496Z,29.92
2023-02-11T20:16:40.666Z,29.75
2023-02-11T20:19:16.968Z,29.35
2023-02-11T20:21:46.765Z,29.35
2023-02-11T20:24:15.575Z,31.10
2023-02-11T20:26:43.352Z,31.92
2023-02-11T20:29:11.116Z,31.58
2023-02-11T20:31:39.063Z,33.92
2023-02-11T20:34:06.781Z,32.10
2023-02-11T20:36:37.510Z,30.70
2023-02-11T20:39:05.826Z,23.50
2023-02-11T20:41:34.615Z,34.75
2023-02-11T20:44:07.294Z,28.98
2023-02-11T20:46:35.581Z,25.20
2023-02-11T20:49:03.607Z,27.60
2023-02-11T20:51:32.501Z,26.42
2023-02-11T20:54:00.962Z,27.02
2023-02-11T20:56:30.622Z,28.20
2023-02-11T20:58:59.422Z,27.83
2023-02-11T21:01:29.207Z,26.90
2023-02-11T21:03:59.094Z,27.77
2023-02-11T21:06:28.271Z,29.27
2023-02-11T21:08:57.687Z,30.42
2023-02-11T21:11:25.388Z,29.15
2023-02-11T21:13:53.042Z,31.92
2023-02-11T21:16:21.099Z,34.90
2023-02-11T21:18:49.712Z,33.05
2023-02-11T21:21:18.002Z,34.78
2023-02-11T21:23:46.267Z,31.70
2023-02-11T21:26:14.260Z,29.42
2023-02-11T21:28:42.418Z,30.27
2023-02-11T21:31:10.331Z,30.52
2023-02-11T21:33:38.053Z,30.00
2023-02-11T21:36:08.016Z,32.65
2023-02-11T21:38:35.973Z,31.88
2023-02-11T21:41:07.014Z,29.17
2023-02-11T21:43:34.928Z,29.77
2023-02-11T21:46:07.287Z,29.60
2023-02-11T21:48:43.236Z,30.55
2023-02-11T21:51:13.626Z,31.73
2023-02-11T21:53:41.372Z,29.10
2023-02-11T21:56:13.640Z,29.42
2023-02-11T21:58:41.317Z,29.02
2023-02-11T22:01:16.655Z,29.80
2023-02-11T22:03:44.556Z,28.42
2023-02-11T22:06:14.575Z,28.63
2023-02-11T22:08:42.224Z,28.35
2023-02-11T22:11:12.389Z,27.27
2023-02-11T22:13:40.971Z,27.65
2023-02-11T22:16:09.961Z,25.67
2023-02-11T22:18:37.816Z,28.13
2023-02-11T22:21:07.360Z,27.38
2023-02-11T22:23:35.359Z,28.00
2023-02-11T22:26:07.720Z,26.23
2023-02-11T22:28:35.634Z,27.70
2023-02-11T22:31:03.280Z,29.80
2023-02-11T22:33:31.044Z,28.00
2023-02-11T22:36:00.007Z,27.80
2023-02-11T22:38:28.786Z,28.88
2023-02-11T22:40:56.455Z,28.30
2023-02-11T22:43:24.320Z,29.25
2023-02-11T22:45:52.415Z,30.33
2023-02-11T22:48:23.026Z,31.13
2023-02-11T22:50:50.681Z,31.07
2023-02-11T22:53:18.502Z,28.25
2023-02-11T22:55:46.206Z,29.52
2023-02-11T22:58:13.787Z,29.80
2023-02-11T23:00:42.110Z,30.50
2023-02-11T23:03:11.015Z,28.73
2023-02-11T23:05:39.703Z,31.40
2023-02-11T23:08:08.865Z,29.25
2023-02-11T23:10:37.389Z,28.75
2023-02-11T23:13:05.805Z,29.38
2023-02-11T23:15:33.678Z,31.75
2023-02-11T23:18:01.384Z,28.70
2023-02-11T23:20:29.118Z,28.20
2023-02-11T23:22:56.738Z,28.73
2023-02-11T23:25:24.344Z,30.95
2023-02-11T23:27:52.001Z,31.58
2023-02-11T23:30:19.875Z,29.05
2023-02-11T23:32:47.444Z,29.65
2023-02-11T23:35:22.117Z,30.67
2023-02-11T23:37:50.538Z,30.65
2023-02-11T23:40:18.929Z,27.95
2023-02-11T23:42:47.682Z,29.73
2023-02-11T23:45:15.606Z,29.33
2023-02-11T23:47:43.495Z,28.75
2023-02-11T23:50:12.020Z,28.73
2023-02-11T23:52:40.755Z,27.63
2023-02-11T23:55:08.677Z,27.40
2023-02-11T23:57:36.608Z,28.73
